Time;durP1;ratioP1;P1;durP2;ratioP2;P2;SDS_P1;SDS_P2;PMS_P1;PMS_P2;Temp;Humidity;BMP_temperature;BMP_pressure;BME280_temperature;BME280_humidity;BME280_pressure;Samples;Min_cycle;Max_cycle;Signal;HPM_P1;HPM_P2
2023/01/02 00:04:11;;;;;;;6.38;2.75;;;;;;;;;;10405868;28;20216;-61
2023/01/02 00:09:11;;;;;;;5.85;2.30;;;;;;;;;;10406597;28;20203;-59
2023/01/02 00:14:11;;;;;;;5.38;2.65;;;;;;;;;;10405096;28;20250;-61
2023/01/02 00:19:11;;;;;;;9.60;3.50;;;;;;;;;;10407497;28;20227;-61
2023/01/02 00:24:11;;;;;;;6.65;2.83;;;;;;;;;;10405962;28;20231;-61
2023/01/02 00:29:12;;;;;;;6.65;2.85;;;;;;;;;;10407091;28;20185;-61
2023/01/02 00:34:13;;;;;;;4.97;2.80;;;;;;;;;;10405555;28;20295;-61
2023/01/02 00:39:13;;;;;;;8.25;2.83;;;;;;;;;;10405235;28;20200;-61
2023/01/02 00:44:13;;;;;;;4.50;2.47;;;;;;;;;;10405847;28;20227;-63
2023/01/02 00:49:13;;;;;;;8.50;2.53;;;;;;;;;;10411439;28;20265;-63
2023/01/02 00:54:14;;;;;;;7.15;2.53;;;;;;;;;;10412707;28;20721;-62
2023/01/02 00:59:15;;;;;;;10.00;2.83;;;;;;;;;;10412889;28;20279;-62
2023/01/02 01:04:15;;;;;;;5.32;2.80;;;;;;;;;;10411442;28;20217;-62
2023/01/02 01:09:16;;;;;;;7.47;2.22;;;;;;;;;;10411997;28;20189;-61
2023/01/02 01:14:17;;;;;;;4.07;2.58;;;;;;;;;;10411411;28;20244;-63
2023/01/02 01:19:17;;;;;;;3.92;2.35;;;;;;;;;;10411607;28;20765;-62
2023/01/02 01:24:17;;;;;;;9.25;3.30;;;;;;;;;;10376117;28;20221;-62
2023/01/02 01:29:18;;;;;;;5.60;2.40;;;;;;;;;;10370817;28;20266;-62
2023/01/02 01:34:18;;;;;;;4.22;2.60;;;;;;;;;;10368020;28;20259;-61
2023/01/02 01:39:18;;;;;;;3.97;2.80;;;;;;;;;;10369668;28;20181;-61
2023/01/02 01:44:38;;;;;;;9.23;3.40;;;;;;;;;;10368767;28;20231;-62
2023/01/02 01:49:38;;;;;;;6.50;2.45;;;;;;;;;;10369476;28;20320;-61
2023/01/02 01:54:45;;;;;;;4.55;2.45;;;;;;;;;;10369039;28;20197;-62
2023/01/02 01:59:45;;;;;;;8.07;2.67;;;;;;;;;;10368231;28;20543;-61
2023/01/02 02:04:46;;;;;;;4.97;2.45;;;;;;;;;;10367362;28;20316;-61
2023/01/02 02:09:49;;;;;;;10.13;2.65;;;;;;;;;;10368887;28;20185;-61
2023/01/02 02:14:49;;;;;;;5.50;3.22;;;;;;;;;;10411507;23;20812;-62
2023/01/02 02:19:57;;;;;;;4.30;2.63;;;;;;;;;;10450644;28;20188;-63
2023/01/02 02:24:58;;;;;;;7.63;2.95;;;;;;;;;;10450465;28;20721;-63
2023/01/02 02:30:09;;;;;;;6.40;2.92;;;;;;;;;;10450458;28;20188;-63
2023/01/02 02:35:28;;;;;;;8.57;3.53;;;;;;;;;;10448878;28;20789;-64
2023/01/02 02:40:40;;;;;;;4.70;2.95;;;;;;;;;;10449753;28;20333;-64
2023/01/02 02:45:51;;;;;;;6.22;2.22;;;;;;;;;;10449284;28;20250;-63
2023/01/02 02:51:21;;;;;;;8.75;2.65;;;;;;;;;;10449261;28;20199;-63
2023/01/02 02:56:23;;;;;;;6.75;3.35;;;;;;;;;;10435825;28;20216;-64
2023/01/02 03:01:27;;;;;;;8.07;3.30;;;;;;;;;;10448707;28;20604;-64
2023/01/02 03:06:42;;;;;;;5.40;2.67;;;;;;;;;;10448854;28;20653;-63
2023/01/02 03:11:48;;;;;;;5.63;3.00;;;;;;;;;;10448704;28;20301;-61
2023/01/02 03:16:53;;;;;;;6.20;2.78;;;;;;;;;;10448179;28;20252;-64
2023/01/02 03:21:57;;;;;;;3.83;2.60;;;;;;;;;;10448302;28;20219;-62
2023/01/02 03:27:01;;;;;;;4.68;2.10;;;;;;;;;;10448647;28;20211;-61
2023/01/02 03:32:04;;;;;;;4.35;1.85;;;;;;;;;;10448327;28;20218;-64
2023/01/02 03:37:06;;;;;;;6.30;3.13;;;;;;;;;;10454580;28;20212;-63
2023/01/02 03:42:09;;;;;;;6.30;2.40;;;;;;;;;;10450714;28;20269;-64
2023/01/02 03:47:27;;;;;;;5.40;2.30;;;;;;;;;;10447093;28;20219;-64
2023/01/02 03:52:28;;;;;;;3.08;2.22;;;;;;;;;;10447917;28;20184;-61
2023/01/02 03:57:34;;;;;;;6.47;2.30;;;;;;;;;;10446853;28;20208;-63
2023/01/02 04:02:50;;;;;;;4.40;1.88;;;;;;;;;;10446685;28;20216;-61
2023/01/02 04:07:58;;;;;;;5.15;2.40;;;;;;;;;;10441803;28;20204;-63
2023/01/02 04:13:00;;;;;;;26.23;12.13;;;;;;;;;;10438381;28;20726;-62
2023/01/02 04:18:03;;;;;;;12.35;4.45;;;;;;;;;;10438540;28;20765;-64
2023/01/02 04:23:24;;;;;;;5.00;3.42;;;;;;;;;;10444756;28;20221;-63
2023/01/02 04:28:26;;;;;;;9.60;3.45;;;;;;;;;;10445627;28;20294;-63
2023/01/02 04:33:28;;;;;;;4.68;2.67;;;;;;;;;;10446809;28;21006;-64
2023/01/02 04:38:28;;;;;;;4.57;2.28;;;;;;;;;;10447498;28;20694;-61
2023/01/02 04:43:29;;;;;;;5.50;2.40;;;;;;;;;;10447218;28;20216;-60
2023/01/02 04:48:29;;;;;;;6.00;2.45;;;;;;;;;;10447040;28;20196;-63
2023/01/02 04:53:29;;;;;;;4.70;2.70;;;;;;;;;;10447335;28;20192;-60
2023/01/02 04:58:29;;;;;;;4.38;2.20;;;;;;;;;;10445997;28;20699;-62
2023/01/02 05:03:29;;;;;;;7.78;2.88;;;;;;;;;;10451603;28;20333;-61
2023/01/02 05:08:29;;;;;;;5.85;2.65;;;;;;;;;;10453766;28;20216;-62
2023/01/02 05:13:31;;;;;;;6.53;3.05;;;;;;;;;;10453366;28;20246;-62
2023/01/02 05:18:31;;;;;;;6.65;2.67;;;;;;;;;;10453500;28;20720;-64
2023/01/02 05:23:49;;;;;;;8.98;2.83;;;;;;;;;;10453372;28;20693;-63
2023/01/02 05:28:53;;;;;;;4.78;2.28;;;;;;;;;;10452441;28;20204;-63
2023/01/02 05:33:54;;;;;;;6.65;2.33;;;;;;;;;;10451368;28;20666;-63
2023/01/02 05:38:54;;;;;;;6.22;2.58;;;;;;;;;;10452731;28;20187;-63
2023/01/02 05:43:54;;;;;;;6.30;2.00;;;;;;;;;;10451745;28;20741;-60
2023/01/02 05:48:55;;;;;;;8.82;2.17;;;;;;;;;;10453249;28;20553;-62
2023/01/02 05:53:55;;;;;;;6.32;2.33;;;;;;;;;;10451305;28;20561;-63
2023/01/02 05:58:55;;;;;;;7.43;2.58;;;;;;;;;;10452339;28;20574;-63
2023/01/02 06:03:56;;;;;;;6.07;2.92;;;;;;;;;;10451442;28;20313;-62
2023/01/02 06:08:58;;;;;;;3.05;1.52;;;;;;;;;;10451592;28;20263;-63
2023/01/02 06:13:59;;;;;;;5.50;1.98;;;;;;;;;;10451226;28;20275;-61
2023/01/02 06:18:59;;;;;;;4.40;2.50;;;;;;;;;;10450836;28;20242;-63
2023/01/02 06:23:59;;;;;;;4.10;2.42;;;;;;;;;;10450945;28;20324;-63
2023/01/02 06:28:59;;;;;;;6.70;3.13;;;;;;;;;;10450546;28;20200;-60
2023/01/02 06:34:00;;;;;;;9.50;2.90;;;;;;;;;;10450549;28;20677;-62
2023/01/02 06:39:01;;;;;;;7.85;2.38;;;;;;;;;;10450034;28;20720;-61
2023/01/02 06:44:01;;;;;;;6.22;3.35;;;;;;;;;;10448752;28;20269;-59
2023/01/02 06:49:01;;;;;;;6.55;3.03;;;;;;;;;;10450597;28;20184;-63
2023/01/02 06:54:01;;;;;;;9.63;2.50;;;;;;;;;;10448891;28;20187;-62
2023/01/02 06:59:01;;;;;;;5.28;3.00;;;;;;;;;;10449998;28;20667;-63
2023/01/02 07:04:02;;;;;;;5.53;3.22;;;;;;;;;;10448853;28;20215;-59
2023/01/02 07:09:02;;;;;;;4.22;2.47;;;;;;;;;;10449062;28;20172;-63
2023/01/02 07:14:02;;;;;;;7.07;2.90;;;;;;;;;;10442915;28;20671;-61
2023/01/02 07:19:02;;;;;;;6.53;2.72;;;;;;;;;;10416260;28;20610;-62
2023/01/02 07:24:02;;;;;;;10.37;3.00;;;;;;;;;;10406622;28;20216;-62
2023/01/02 07:29:03;;;;;;;6.60;2.80;;;;;;;;;;10408335;28;20465;-63
2023/01/02 07:34:03;;;;;;;6.18;2.97;;;;;;;;;;10406942;28;20261;-63
2023/01/02 07:39:03;;;;;;;6.75;2.90;;;;;;;;;;10406517;28;20196;-63
2023/01/02 07:44:03;;;;;;;5.90;3.17;;;;;;;;;;10406883;28;20220;-63
2023/01/02 07:49:03;;;;;;;6.38;3.50;;;;;;;;;;10406596;28;20675;-63
2023/01/02 07:54:04;;;;;;;5.32;3.58;;;;;;;;;;10406839;28;20334;-63
2023/01/02 07:59:04;;;;;;;6.45;3.22;;;;;;;;;;10413106;28;20196;-63
2023/01/02 08:04:04;;;;;;;8.07;3.25;;;;;;;;;;10406663;28;20449;-63
2023/01/02 08:09:04;;;;;;;5.47;4.55;;;;;;;;;;10451788;28;20226;-61
2023/01/02 08:14:04;;;;;;;8.98;3.40;;;;;;;;;;10451506;28;20450;-60
2023/01/02 08:19:04;;;;;;;9.70;4.65;;;;;;;;;;10426522;22;20236;-62
2023/01/02 08:24:07;;;;;;;11.35;3.63;;;;;;;;;;10405151;28;20252;-60
2023/01/02 08:29:08;;;;;;;9.95;3.72;;;;;;;;;;10417490;28;20246;-61
2023/01/02 08:34:08;;;;;;;7.28;3.28;;;;;;;;;;10410207;28;20263;-62
2023/01/02 08:39:08;;;;;;;9.43;3.30;;;;;;;;;;10412166;28;20213;-62
2023/01/02 08:44:08;;;;;;;9.63;3.63;;;;;;;;;;10410347;28;20260;-63
2023/01/02 08:49:09;;;;;;;4.88;3.10;;;;;;;;;;10408861;28;20231;-63
2023/01/02 08:54:09;;;;;;;8.50;3.40;;;;;;;;;;10411120;28;20602;-61
2023/01/02 08:59:10;;;;;;;6.20;3.45;;;;;;;;;;10409579;28;20597;-62
2023/01/02 09:04:10;;;;;;;6.70;3.35;;;;;;;;;;10408287;28;20654;-62
2023/01/02 09:09:12;;;;;;;4.55;3.20;;;;;;;;;;10387724;28;20232;-63
2023/01/02 09:14:12;;;;;;;6.00;3.60;;;;;;;;;;10381706;28;20423;-62
2023/01/02 09:19:12;;;;;;;5.38;2.92;;;;;;;;;;10390160;28;20235;-60
2023/01/02 09:24:12;;;;;;;6.63;3.58;;;;;;;;;;10409203;28;20221;-60
2023/01/02 09:29:13;;;;;;;7.55;3.50;;;;;;;;;;10407873;28;20205;-62
2023/01/02 09:34:13;;;;;;;8.38;3.13;;;;;;;;;;10407857;28;20200;-62
2023/01/02 09:39:14;;;;;;;5.82;4.05;;;;;;;;;;10409712;28;20212;-61
2023/01/02 09:44:17;;;;;;;9.77;5.05;;;;;;;;;;10406705;28;20216;-61
2023/01/02 09:49:20;;;;;;;7.38;3.92;;;;;;;;;;10407496;28;20258;-60
2023/01/02 09:54:22;;;;;;;9.43;3.22;;;;;;;;;;10406912;28;20196;-63
2023/01/02 09:59:27;;;;;;;6.28;3.40;;;;;;;;;;10407325;28;20192;-63
2023/01/02 10:04:33;;;;;;;8.45;3.28;;;;;;;;;;10405977;28;20273;-62
2023/01/02 10:09:47;;;;;;;9.52;3.10;;;;;;;;;;10405709;28;20203;-63
2023/01/02 10:15:00;;;;;;;7.53;3.53;;;;;;;;;;10406454;28;20251;-60
2023/01/02 10:20:07;;;;;;;5.50;2.63;;;;;;;;;;10405805;28;20199;-62
2023/01/02 10:25:14;;;;;;;8.10;3.67;;;;;;;;;;10422068;28;20345;-62
2023/01/02 10:30:25;;;;;;;5.43;3.05;;;;;;;;;;10415811;28;20682;-63
2023/01/02 10:35:32;;;;;;;13.90;5.80;;;;;;;;;;10403657;28;20651;-64
2023/01/02 10:40:32;;;;;;;8.93;4.57;;;;;;;;;;10422330;28;20666;-62
2023/01/02 10:45:32;;;;;;;10.65;4.32;;;;;;;;;;10405323;28;20224;-63
2023/01/02 10:50:37;;;;;;;8.07;4.53;;;;;;;;;;10366409;28;20181;-62
2023/01/02 10:55:39;;;;;;;9.45;3.88;;;;;;;;;;10373058;28;20214;-63
2023/01/02 11:00:40;;;;;;;9.35;4.60;;;;;;;;;;10405937;28;20192;-62
2023/01/02 11:05:47;;;;;;;8.60;5.05;;;;;;;;;;10405591;28;20227;-62
2023/01/02 11:10:48;;;;;;;8.25;3.80;;;;;;;;;;10405125;28;20607;-61
2023/01/02 11:15:55;;;;;;;5.57;3.47;;;;;;;;;;10404319;28;20289;-62
2023/01/02 11:21:02;;;;;;;8.38;3.67;;;;;;;;;;10405457;28;20188;-61
2023/01/02 11:26:03;;;;;;;9.20;4.15;;;;;;;;;;10403649;28;20700;-60
2023/01/02 11:31:06;;;;;;;10.88;2.92;;;;;;;;;;10402404;28;20193;-62
2023/01/02 11:36:09;;;;;;;7.95;3.22;;;;;;;;;;10405336;28;20232;-62
2023/01/02 11:41:24;;;;;;;9.07;5.55;;;;;;;;;;10403785;28;20255;-63
2023/01/02 11:46:35;;;;;;;5.18;2.88;;;;;;;;;;10402668;28;20965;-62
2023/01/02 11:51:37;;;;;;;3.63;2.20;;;;;;;;;;10404349;28;20269;-62
2023/01/02 11:56:39;;;;;;;4.78;2.88;;;;;;;;;;10402412;28;20274;-62
2023/01/02 12:01:45;;;;;;;7.03;2.80;;;;;;;;;;10401706;28;20271;-61
2023/01/02 12:06:57;;;;;;;8.32;2.80;;;;;;;;;;10402827;28;20222;-61
2023/01/02 12:11:57;;;;;;;5.35;2.53;;;;;;;;;;10401218;28;20731;-61
2023/01/02 12:17:12;;;;;;;5.72;2.42;;;;;;;;;;10401693;28;20315;-63
2023/01/02 12:22:18;;;;;;;8.75;2.80;;;;;;;;;;10402405;28;20223;-62
2023/01/02 12:27:24;;;;;;;8.35;2.97;;;;;;;;;;10393564;28;20207;-62
2023/01/02 12:32:30;;;;;;;7.57;2.30;;;;;;;;;;10442506;28;20200;-64
2023/01/02 12:37:36;;;;;;;14.68;5.40;;;;;;;;;;10444465;28;20306;-63
2023/01/02 12:42:46;;;;;;;16.88;6.90;;;;;;;;;;10446484;28;20231;-63
2023/01/02 12:47:54;;;;;;;7.78;3.40;;;;;;;;;;10450919;28;20258;-63
2023/01/02 12:53:10;;;;;;;7.18;3.30;;;;;;;;;;10435378;28;20189;-61
2023/01/02 12:58:22;;;;;;;3.50;2.17;;;;;;;;;;10410952;28;20241;-61
2023/01/02 13:03:34;;;;;;;4.50;1.90;;;;;;;;;;10420052;28;20216;-60
2023/01/02 13:08:43;;;;;;;8.13;2.42;;;;;;;;;;10407260;28;20222;-62
2023/01/02 13:13:44;;;;;;;5.55;2.80;;;;;;;;;;10414754;28;20199;-58
2023/01/02 13:18:52;;;;;;;6.25;2.40;;;;;;;;;;10414260;28;20725;-63
2023/01/02 13:23:53;;;;;;;6.57;2.30;;;;;;;;;;10407368;28;20224;-62
2023/01/02 13:28:58;;;;;;;9.18;3.65;;;;;;;;;;10410086;28;20239;-62
2023/01/02 13:34:05;;;;;;;12.88;4.45;;;;;;;;;;10443743;28;20207;-62
2023/01/02 13:39:19;;;;;;;9.10;3.85;;;;;;;;;;10434504;28;20626;-63
2023/01/02 13:44:29;;;;;;;11.35;2.83;;;;;;;;;;10423804;28;20223;-62
2023/01/02 13:49:30;;;;;;;5.93;2.40;;;;;;;;;;10407196;28;20215;-63
2023/01/02 13:54:36;;;;;;;20.30;13.80;;;;;;;;;;10403564;28;20207;-63
2023/01/02 13:59:48;;;;;;;3.90;2.10;;;;;;;;;;10406435;28;20193;-63
2023/01/02 14:04:49;;;;;;;6.15;2.30;;;;;;;;;;10419513;28;20322;-64
2023/01/02 14:09:58;;;;;;;11.90;2.42;;;;;;;;;;10438404;28;20183;-63
2023/01/02 14:14:58;;;;;;;7.45;2.55;;;;;;;;;;10446513;28;20243;-65
2023/01/02 14:20:19;;;;;;;8.60;2.60;;;;;;;;;;10448678;28;20421;-64
2023/01/02 14:25:20;;;;;;;7.93;2.40;;;;;;;;;;10446033;28;20231;-64
2023/01/02 14:30:28;;;;;;;6.65;2.25;;;;;;;;;;10380278;28;20201;-64
2023/01/02 14:35:34;;;;;;;5.00;2.17;;;;;;;;;;10388879;28;20215;-64
2023/01/02 14:40:38;;;;;;;9.93;3.15;;;;;;;;;;10403789;28;20199;-64
2023/01/02 14:45:44;;;;;;;7.18;3.30;;;;;;;;;;10403816;28;20775;-64
2023/01/02 14:50:46;;;;;;;6.15;2.53;;;;;;;;;;10404275;28;20251;-64
2023/01/02 14:55:47;;;;;;;6.15;4.00;;;;;;;;;;10403921;28;20304;-64
2023/01/02 15:00:48;;;;;;;10.65;3.08;;;;;;;;;;10404425;28;20240;-64
2023/01/02 15:05:52;;;;;;;6.85;2.17;;;;;;;;;;10402071;28;20707;-64
2023/01/02 15:10:57;;;;;;;8.68;2.95;;;;;;;;;;10416126;28;20191;-64
2023/01/02 15:15:58;;;;;;;8.15;3.90;;;;;;;;;;10409620;28;20233;-64
2023/01/02 15:21:06;;;;;;;11.98;5.72;;;;;;;;;;10402358;28;20274;-64
2023/01/02 15:26:21;;;;;;;12.13;6.30;;;;;;;;;;10408880;28;20270;-63
2023/01/02 15:31:21;;;;;;;14.55;6.00;;;;;;;;;;10399243;28;20655;-64
2023/01/02 15:36:31;;;;;;;17.33;10.60;;;;;;;;;;10402702;28;20208;-64
2023/01/02 15:41:38;;;;;;;8.53;2.87;;;;;;;;;;10403021;28;20276;-64
2023/01/02 15:46:39;;;;;;;5.83;2.43;;;;;;;;;;10393998;28;20267;-63
2023/01/02 15:51:39;;;;;;;10.00;3.03;;;;;;;;;;10359969;28;20189;-63
2023/01/02 15:56:40;;;;;;;11.35;2.38;;;;;;;;;;10361501;28;20213;-64
2023/01/02 16:01:43;;;;;;;8.68;2.60;;;;;;;;;;10361061;28;20583;-64
2023/01/02 16:06:43;;;;;;;5.65;2.65;;;;;;;;;;10359373;28;20197;-63
2023/01/02 16:11:48;;;;;;;4.50;2.38;;;;;;;;;;10379644;28;20184;-62
2023/01/02 16:16:51;;;;;;;8.77;3.10;;;;;;;;;;10399979;28;20275;-62
2023/01/02 16:21:52;;;;;;;7.80;2.55;;;;;;;;;;10408988;28;20218;-61
2023/01/02 16:26:52;;;;;;;9.32;2.75;;;;;;;;;;10409617;28;20735;-63
2023/01/02 16:31:57;;;;;;;6.07;2.35;;;;;;;;;;10408844;28;20192;-62
2023/01/02 16:37:15;;;;;;;7.57;2.38;;;;;;;;;;10407932;28;20295;-62
2023/01/02 16:42:36;;;;;;;6.43;2.00;;;;;;;;;;10408004;28;20243;-64
2023/01/02 16:47:38;;;;;;;7.20;1.95;;;;;;;;;;10407853;28;20252;-63
2023/01/02 16:52:40;;;;;;;6.43;2.20;;;;;;;;;;10407360;28;20272;-63
2023/01/02 16:57:40;;;;;;;7.10;2.30;;;;;;;;;;10408784;28;20690;-64
2023/01/02 17:02:40;;;;;;;20.08;7.82;;;;;;;;;;10409288;28;20298;-65
2023/01/02 17:07:40;;;;;;;15.18;5.30;;;;;;;;;;10413140;28;20209;-64
2023/01/02 17:12:40;;;;;;;11.05;2.95;;;;;;;;;;10413576;28;20196;-63
2023/01/02 17:17:41;;;;;;;7.30;2.45;;;;;;;;;;10410471;28;20243;-64
2023/01/02 17:22:41;;;;;;;9.40;2.40;;;;;;;;;;10411615;28;20224;-64
2023/01/02 17:27:41;;;;;;;8.35;2.90;;;;;;;;;;10387769;28;20252;-63
2023/01/02 17:32:42;;;;;;;7.15;2.67;;;;;;;;;;10407090;28;20187;-64
2023/01/02 17:37:42;;;;;;;10.73;3.15;;;;;;;;;;10411453;28;20217;-64
2023/01/02 17:42:43;;;;;;;14.55;2.47;;;;;;;;;;10410075;28;20208;-65
2023/01/02 17:47:43;;;;;;;9.20;2.60;;;;;;;;;;10410398;28;20639;-63
2023/01/02 17:52:43;;;;;;;6.28;2.30;;;;;;;;;;10409607;28;20734;-62
2023/01/02 17:57:44;;;;;;;6.68;2.38;;;;;;;;;;10409335;28;20304;-63
2023/01/02 18:02:44;;;;;;;6.38;2.30;;;;;;;;;;10408100;28;20220;-63
2023/01/02 18:07:44;;;;;;;5.80;2.33;;;;;;;;;;10408910;28;20208;-64
2023/01/02 18:12:44;;;;;;;14.50;2.60;;;;;;;;;;10408564;28;20188;-64
2023/01/02 18:17:44;;;;;;;8.02;2.65;;;;;;;;;;10408057;28;20243;-63
2023/01/02 18:22:45;;;;;;;6.57;2.28;;;;;;;;;;10408559;28;20549;-64
2023/01/02 18:27:46;;;;;;;8.85;2.53;;;;;;;;;;10407500;28;20295;-62
2023/01/02 18:32:46;;;;;;;9.13;3.90;;;;;;;;;;10407928;28;20279;-64
2023/01/02 18:37:47;;;;;;;14.02;4.35;;;;;;;;;;10407831;28;20702;-63
2023/01/02 18:42:50;;;;;;;11.90;4.70;;;;;;;;;;10406373;28;20228;-63
2023/01/02 18:47:55;;;;;;;10.27;2.33;;;;;;;;;;10407173;28;20575;-62
2023/01/02 18:52:55;;;;;;;11.25;3.90;;;;;;;;;;10407380;28;20624;-62
2023/01/02 18:58:00;;;;;;;11.88;3.65;;;;;;;;;;10406106;28;20289;-62
2023/01/02 19:03:17;;;;;;;9.43;2.97;;;;;;;;;;10406531;28;20752;-63
2023/01/02 19:08:29;;;;;;;9.00;2.53;;;;;;;;;;10406771;28;20204;-63
2023/01/02 19:13:30;;;;;;;6.95;2.90;;;;;;;;;;10405572;28;20189;-62
2023/01/02 19:18:34;;;;;;;7.57;4.70;;;;;;;;;;10405859;28;20267;-63
2023/01/02 19:23:42;;;;;;;8.90;2.70;;;;;;;;;;10405614;28;20703;-63
2023/01/02 19:28:47;;;;;;;7.60;3.20;;;;;;;;;;10405177;28;20626;-63
2023/01/02 19:33:54;;;;;;;8.30;2.47;;;;;;;;;;10405714;28;20286;-63
2023/01/02 19:38:55;;;;;;;10.68;2.80;;;;;;;;;;10405639;28;20731;-63
2023/01/02 19:43:55;;;;;;;13.55;4.10;;;;;;;;;;10404134;28;20216;-62
2023/01/02 19:48:55;;;;;;;8.00;2.95;;;;;;;;;;10405960;28;20206;-62
2023/01/02 19:53:55;;;;;;;3.50;2.22;;;;;;;;;;10403908;28;20243;-63
2023/01/02 19:58:56;;;;;;;6.38;2.30;;;;;;;;;;10404992;28;20204;-62
2023/01/02 20:03:56;;;;;;;6.45;2.28;;;;;;;;;;10404344;28;20224;-62
2023/01/02 20:08:56;;;;;;;6.40;2.58;;;;;;;;;;10405027;28;20204;-63
2023/01/02 20:13:56;;;;;;;7.57;2.22;;;;;;;;;;10404565;28;20232;-62
2023/01/02 20:18:57;;;;;;;10.52;2.40;;;;;;;;;;10415707;23;20245;-62
2023/01/02 20:23:58;;;;;;;7.72;2.45;;;;;;;;;;10363259;28;20221;-62
2023/01/02 20:28:58;;;;;;;7.38;2.72;;;;;;;;;;10363907;28;20634;-61
2023/01/02 20:33:58;;;;;;;8.93;2.38;;;;;;;;;;10364512;28;20668;-61
2023/01/02 20:39:00;;;;;;;6.43;2.55;;;;;;;;;;10363349;28;20197;-61
2023/01/02 20:44:01;;;;;;;7.63;2.15;;;;;;;;;;10362611;28;20233;-62
2023/01/02 20:49:01;;;;;;;6.30;2.50;;;;;;;;;;10363877;28;20209;-62
2023/01/02 20:54:02;;;;;;;2.10;1.60;;;;;;;;;;10362608;28;20248;-60
2023/01/02 20:59:02;;;;;;;0.80;0.77;;;;;;;;;;10363978;28;20776;-63
2023/01/02 21:04:02;;;;;;;1.13;0.60;;;;;;;;;;10365540;28;20280;-59
2023/01/02 21:09:03;;;;;;;0.73;0.73;;;;;;;;;;10370663;28;20209;-61
2023/01/02 21:14:03;;;;;;;0.90;0.90;;;;;;;;;;10369586;28;20194;-62
2023/01/02 21:19:03;;;;;;;1.10;1.00;;;;;;;;;;10370935;28;20237;-62
2023/01/02 21:24:04;;;;;;;1.00;1.00;;;;;;;;;;10369398;28;20217;-61
2023/01/02 21:29:04;;;;;;;1.07;1.07;;;;;;;;;;10370368;28;20700;-63
2023/01/02 21:34:04;;;;;;;1.20;1.20;;;;;;;;;;10369957;28;20682;-62
2023/01/02 21:39:04;;;;;;;2.37;1.30;;;;;;;;;;10368044;28;20205;-62
2023/01/02 21:44:05;;;;;;;1.60;1.50;;;;;;;;;;10367765;28;20777;-61
2023/01/02 21:49:05;;;;;;;2.30;1.37;;;;;;;;;;10370064;28;20264;-61
2023/01/02 21:54:05;;;;;;;1.30;1.10;;;;;;;;;;10369613;28;20284;-61
2023/01/02 21:59:05;;;;;;;2.07;1.47;;;;;;;;;;10369792;28;20451;-59
2023/01/02 22:04:05;;;;;;;2.30;2.07;;;;;;;;;;10369524;28;20731;-58
2023/01/02 22:09:06;;;;;;;2.00;1.87;;;;;;;;;;10368558;28;20233;-60
2023/01/02 22:14:06;;;;;;;2.07;1.80;;;;;;;;;;10367888;28;20181;-59
2023/01/02 22:19:06;;;;;;;1.67;1.50;;;;;;;;;;10368839;28;20729;-58
2023/01/02 22:24:06;;;;;;;1.10;1.10;;;;;;;;;;10370090;28;20596;-60
2023/01/02 22:29:07;;;;;;;1.10;1.10;;;;;;;;;;10370073;28;20213;-58
2023/01/02 22:34:08;;;;;;;1.50;1.40;;;;;;;;;;10379073;28;20574;-58
2023/01/02 22:39:09;;;;;;;1.40;1.30;;;;;;;;;;10369724;28;20213;-58
2023/01/02 22:44:17;;;;;;;1.80;1.70;;;;;;;;;;10367565;28;20279;-59
2023/01/02 22:49:22;;;;;;;2.53;1.70;;;;;;;;;;10367539;28;20202;-60
2023/01/02 22:54:23;;;;;;;3.67;1.93;;;;;;;;;;10367349;28;20247;-60
2023/01/02 22:59:23;;;;;;;2.40;2.20;;;;;;;;;;10367392;28;20216;-58
2023/01/02 23:04:23;;;;;;;2.40;2.20;;;;;;;;;;10366778;28;20691;-61
2023/01/02 23:09:23;;;;;;;2.00;1.73;;;;;;;;;;10367374;28;20213;-60
2023/01/02 23:14:24;;;;;;;4.20;1.70;;;;;;;;;;10366874;28;20193;-61
2023/01/02 23:19:24;;;;;;;1.90;1.80;;;;;;;;;;10366755;28;20742;-60
2023/01/02 23:24:26;;;;;;;2.07;1.60;;;;;;;;;;10366399;28;20492;-62
2023/01/02 23:29:26;;;;;;;1.50;1.40;;;;;;;;;;10366352;28;20292;-62
2023/01/02 23:34:27;;;;;;;1.50;1.40;;;;;;;;;;10366847;28;20193;-61
2023/01/02 23:39:28;;;;;;;1.50;1.40;;;;;;;;;;10365758;28;20451;-61
2023/01/02 23:44:28;;;;;;;1.50;1.40;;;;;;;;;;10366165;28;20937;-61
2023/01/02 23:49:29;;;;;;;2.20;1.40;;;;;;;;;;10365872;28;20239;-61
2023/01/02 23:54:29;;;;;;;1.77;1.00;;;;;;;;;;10365510;28;20193;-61
2023/01/02 23:59:29;;;;;;;1.47;1.20;;;;;;;;;;10366218;28;20213;-61
